sensor_id;sensor_type;location;lat;lon;timestamp;pressure;altitude;pressure_sealevel;temperature;humidity
9521;BME280;4798;41.574;23.734;2022-11-20T00:01:12;95009.72;;;16.66;100.00
9521;BME280;4798;41.574;23.734;2022-11-20T00:03:41;95012.09;;;16.59;100.00
9521;BME280;4798;41.574;23.734;2022-11-20T00:06:11;95003.13;;;16.72;100.00
9521;BME280;4798;41.574;23.734;2022-11-20T00:08:41;95018.09;;;16.81;100.00
9521;BME280;4798;41.574;23.734;2022-11-20T00:11:11;95022.78;;;16.76;100.00
9521;BME280;4798;41.574;23.734;2022-11-20T00:13:42;95012.09;;;16.76;100.00
9521;BME280;4798;41.574;23.734;2022-11-20T00:16:12;95021.22;;;16.83;100.00
9521;BME280;4798;41.574;23.734;2022-11-20T00:18:40;95021.72;;;16.77;100.00
9521;BME280;4798;41.574;23.734;2022-11-20T00:21:12;95018.88;;;16.73;100.00
9521;BME280;4798;41.574;23.734;2022-11-20T00:23:42;95016.97;;;16.74;100.00
9521;BME280;4798;41.574;23.734;2022-11-20T00:26:12;94945.31;;;16.28;100.00
9521;BME280;4798;41.574;23.734;2022-11-20T00:28:42;95014.16;;;16.62;100.00
9521;BME280;4798;41.574;23.734;2022-11-20T00:31:14;95015.25;;;16.78;100.00
9521;BME280;4798;41.574;23.734;2022-11-20T00:33:43;95011.31;;;16.84;100.00
9521;BME280;4798;41.574;23.734;2022-11-20T00:36:14;95003.59;;;16.91;100.00
9521;BME280;4798;41.574;23.734;2022-11-20T00:38:44;94997.75;;;17.06;100.00
9521;BME280;4798;41.574;23.734;2022-11-20T00:41:14;94997.94;;;16.92;100.00
9521;BME280;4798;41.574;23.734;2022-11-20T00:43:43;95001.53;;;17.05;100.00
9521;BME280;4798;41.574;23.734;2022-11-20T00:46:13;95005.16;;;16.83;100.00
9521;BME280;4798;41.574;23.734;2022-11-20T00:48:42;95005.16;;;16.75;100.00
9521;BME280;4798;41.574;23.734;2022-11-20T00:51:12;94994.38;;;16.06;100.00
9521;BME280;4798;41.574;23.734;2022-11-20T00:53:41;95010.41;;;15.67;100.00
9521;BME280;4798;41.574;23.734;2022-11-20T00:56:12;94997.94;;;15.93;100.00
9521;BME280;4798;41.574;23.734;2022-11-20T00:58:42;95001.72;;;16.01;100.00
9521;BME280;4798;41.574;23.734;2022-11-20T01:01:12;94996.44;;;16.35;100.00
9521;BME280;4798;41.574;23.734;2022-11-20T01:03:42;94992.97;;;16.17;100.00
9521;BME280;4798;41.574;23.734;2022-11-20T01:06:13;94998.28;;;16.00;100.00
9521;BME280;4798;41.574;23.734;2022-11-20T01:08:41;95002.66;;;15.96;100.00
9521;BME280;4798;41.574;23.734;2022-11-20T01:11:14;95013.00;;;15.89;100.00
9521;BME280;4798;41.574;23.734;2022-11-20T01:13:44;95010.22;;;15.55;100.00
9521;BME280;4798;41.574;23.734;2022-11-20T01:16:14;94933.06;;;15.31;100.00
9521;BME280;4798;41.574;23.734;2022-11-20T01:18:44;95019.38;;;16.10;100.00
9521;BME280;4798;41.574;23.734;2022-11-20T01:21:15;95029.34;;;15.48;100.00
9521;BME280;4798;41.574;23.734;2022-11-20T01:23:44;95028.09;;;15.54;100.00
9521;BME280;4798;41.574;23.734;2022-11-20T01:26:16;95020.66;;;15.73;100.00
9521;BME280;4798;41.574;23.734;2022-11-20T01:28:46;95018.72;;;15.96;100.00
9521;BME280;4798;41.574;23.734;2022-11-20T01:31:17;95010.66;;;15.87;100.00
9521;BME280;4798;41.574;23.734;2022-11-20T01:33:48;94998.78;;;15.63;100.00
9521;BME280;4798;41.574;23.734;2022-11-20T01:36:18;95010.59;;;15.70;100.00
9521;BME280;4798;41.574;23.734;2022-11-20T01:38:47;94988.75;;;15.77;100.00
9521;BME280;4798;41.574;23.734;2022-11-20T01:41:17;94983.25;;;15.73;100.00
9521;BME280;4798;41.574;23.734;2022-11-20T01:43:59;94980.88;;;15.72;100.00
9521;BME280;4798;41.574;23.734;2022-11-20T01:46:28;94973.75;;;15.98;100.00
9521;BME280;4798;41.574;23.734;2022-11-20T01:48:59;94989.78;;;15.98;100.00
9521;BME280;4798;41.574;23.734;2022-11-20T01:51:33;94984.66;;;15.71;100.00
9521;BME280;4798;41.574;23.734;2022-11-20T01:54:05;94986.63;;;15.57;100.00
9521;BME280;4798;41.574;23.734;2022-11-20T01:56:39;94969.72;;;15.39;100.00
9521;BME280;4798;41.574;23.734;2022-11-20T01:59:10;94968.91;;;15.30;100.00
9521;BME280;4798;41.574;23.734;2022-11-20T02:01:41;94968.41;;;15.28;100.00
9521;BME280;4798;41.574;23.734;2022-11-20T02:04:10;94970.81;;;15.38;100.00
9521;BME280;4798;41.574;23.734;2022-11-20T02:06:42;94882.75;;;15.07;100.00
9521;BME280;4798;41.574;23.734;2022-11-20T02:09:11;94949.56;;;15.55;100.00
9521;BME280;4798;41.574;23.734;2022-11-20T02:11:41;94947.41;;;15.74;100.00
9521;BME280;4798;41.574;23.734;2022-11-20T02:14:10;94946.81;;;15.77;100.00
9521;BME280;4798;41.574;23.734;2022-11-20T02:16:40;94934.16;;;15.52;100.00
9521;BME280;4798;41.574;23.734;2022-11-20T02:19:19;94940.81;;;15.41;100.00
9521;BME280;4798;41.574;23.734;2022-11-20T02:21:58;94947.81;;;15.51;100.00
9521;BME280;4798;41.574;23.734;2022-11-20T02:24:29;94953.63;;;14.69;100.00
9521;BME280;4798;41.574;23.734;2022-11-20T02:27:01;94950.09;;;14.82;100.00
9521;BME280;4798;41.574;23.734;2022-11-20T02:29:33;94938.88;;;14.72;100.00
9521;BME280;4798;41.574;23.734;2022-11-20T02:32:03;94947.22;;;15.01;100.00
9521;BME280;4798;41.574;23.734;2022-11-20T02:34:32;94943.59;;;15.27;100.00
9521;BME280;4798;41.574;23.734;2022-11-20T02:37:00;94942.22;;;15.39;100.00
9521;BME280;4798;41.574;23.734;2022-11-20T02:39:30;94951.63;;;15.67;100.00
9521;BME280;4798;41.574;23.734;2022-11-20T02:42:00;94949.84;;;15.54;100.00
9521;BME280;4798;41.574;23.734;2022-11-20T02:44:29;94947.38;;;15.57;100.00
9521;BME280;4798;41.574;23.734;2022-11-20T02:46:57;94945.97;;;15.60;100.00
9521;BME280;4798;41.574;23.734;2022-11-20T02:49:25;94942.25;;;15.78;100.00
9521;BME280;4798;41.574;23.734;2022-11-20T02:51:54;94952.47;;;15.76;100.00
9521;BME280;4798;41.574;23.734;2022-11-20T02:54:22;94927.72;;;15.62;100.00
9521;BME280;4798;41.574;23.734;2022-11-20T02:56:52;94938.13;;;15.72;100.00
9521;BME280;4798;41.574;23.734;2022-11-20T02:59:20;94943.09;;;15.48;100.00
9521;BME280;4798;41.574;23.734;2022-11-20T03:01:49;94940.81;;;15.33;100.00
9521;BME280;4798;41.574;23.734;2022-11-20T03:04:17;94938.41;;;15.31;100.00
9521;BME280;4798;41.574;23.734;2022-11-20T03:06:46;94933.19;;;15.48;100.00
9521;BME280;4798;41.574;23.734;2022-11-20T03:09:14;94950.63;;;15.23;100.00
9521;BME280;4798;41.574;23.734;2022-11-20T03:11:42;94935.94;;;15.04;100.00
9521;BME280;4798;41.574;23.734;2022-11-20T03:14:12;94925.06;;;15.22;100.00
9521;BME280;4798;41.574;23.734;2022-11-20T03:16:41;94925.25;;;15.04;100.00
9521;BME280;4798;41.574;23.734;2022-11-20T03:19:09;94925.66;;;15.19;100.00
9521;BME280;4798;41.574;23.734;2022-11-20T03:21:37;94908.66;;;15.15;100.00
9521;BME280;4798;41.574;23.734;2022-11-20T03:24:06;94918.06;;;15.13;100.00
9521;BME280;4798;41.574;23.734;2022-11-20T03:26:34;94928.47;;;15.23;100.00
9521;BME280;4798;41.574;23.734;2022-11-20T03:29:04;94934.00;;;15.26;100.00
9521;BME280;4798;41.574;23.734;2022-11-20T03:31:35;94931.94;;;15.23;100.00
9521;BME280;4798;41.574;23.734;2022-11-20T03:34:04;94928.06;;;15.30;100.00
9521;BME280;4798;41.574;23.734;2022-11-20T03:36:33;94930.59;;;15.35;100.00
9521;BME280;4798;41.574;23.734;2022-11-20T03:39:01;94935.72;;;15.53;100.00
9521;BME280;4798;41.574;23.734;2022-11-20T03:41:31;94932.47;;;15.65;100.00
9521;BME280;4798;41.574;23.734;2022-11-20T03:44:01;94926.19;;;15.61;100.00
9521;BME280;4798;41.574;23.734;2022-11-20T03:46:30;94921.94;;;15.68;100.00
9521;BME280;4798;41.574;23.734;2022-11-20T03:49:00;94920.97;;;15.64;100.00
9521;BME280;4798;41.574;23.734;2022-11-20T03:51:29;94930.25;;;15.67;100.00
9521;BME280;4798;41.574;23.734;2022-11-20T03:53:59;94944.72;;;15.66;100.00
9521;BME280;4798;41.574;23.734;2022-11-20T03:56:29;94935.03;;;15.87;100.00
9521;BME280;4798;41.574;23.734;2022-11-20T03:58:58;94860.69;;;15.33;100.00
9521;BME280;4798;41.574;23.734;2022-11-20T04:01:28;94915.81;;;15.68;100.00
9521;BME280;4798;41.574;23.734;2022-11-20T04:03:57;94940.09;;;15.97;100.00
9521;BME280;4798;41.574;23.734;2022-11-20T04:06:28;94861.28;;;15.21;100.00
9521;BME280;4798;41.574;23.734;2022-11-20T04:08:58;94849.03;;;15.28;100.00
9521;BME280;4798;41.574;23.734;2022-11-20T04:11:28;94941.66;;;15.98;100.00
9521;BME280;4798;41.574;23.734;2022-11-20T04:13:58;94885.13;;;15.57;100.00
9521;BME280;4798;41.574;23.734;2022-11-20T04:16:29;94937.56;;;16.09;100.00
9521;BME280;4798;41.574;23.734;2022-11-20T04:19:00;94937.88;;;15.99;100.00
9521;BME280;4798;41.574;23.734;2022-11-20T04:21:30;94937.56;;;16.09;100.00
9521;BME280;4798;41.574;23.734;2022-11-20T04:23:59;94932.41;;;16.13;100.00
9521;BME280;4798;41.574;23.734;2022-11-20T04:26:28;94939.34;;;16.14;100.00
9521;BME280;4798;41.574;23.734;2022-11-20T04:28:58;94943.28;;;16.16;100.00
9521;BME280;4798;41.574;23.734;2022-11-20T04:31:30;94931.31;;;16.22;100.00
9521;BME280;4798;41.574;23.734;2022-11-20T04:33:59;94925.34;;;16.25;100.00
9521;BME280;4798;41.574;23.734;2022-11-20T04:36:29;94908.81;;;16.23;100.00
9521;BME280;4798;41.574;23.734;2022-11-20T04:38:59;94896.56;;;16.14;100.00
9521;BME280;4798;41.574;23.734;2022-11-20T04:41:29;94918.25;;;16.21;100.00
9521;BME280;4798;41.574;23.734;2022-11-20T04:44:00;94916.38;;;16.13;100.00
9521;BME280;4798;41.574;23.734;2022-11-20T04:46:32;94915.28;;;16.14;100.00
9521;BME280;4798;41.574;23.734;2022-11-20T04:49:00;94833.16;;;15.63;100.00
9521;BME280;4798;41.574;23.734;2022-11-20T04:51:30;94918.09;;;16.09;100.00
9521;BME280;4798;41.574;23.734;2022-11-20T04:53:58;94913.03;;;16.07;100.00
9521;BME280;4798;41.574;23.734;2022-11-20T04:56:28;94880.66;;;16.00;100.00
9521;BME280;4798;41.574;23.734;2022-11-20T04:59:00;94922.94;;;16.07;100.00
9521;BME280;4798;41.574;23.734;2022-11-20T05:01:29;94904.38;;;15.76;100.00
9521;BME280;4798;41.574;23.734;2022-11-20T05:03:59;94924.19;;;15.92;100.00
9521;BME280;4798;41.574;23.734;2022-11-20T05:06:27;94937.44;;;16.06;100.00
9521;BME280;4798;41.574;23.734;2022-11-20T05:08:58;94928.16;;;16.12;100.00
9521;BME280;4798;41.574;23.734;2022-11-20T05:11:26;94884.59;;;16.03;100.00
9521;BME280;4798;41.574;23.734;2022-11-20T05:13:58;94931.63;;;16.29;100.00
9521;BME280;4798;41.574;23.734;2022-11-20T05:16:27;94927.38;;;16.11;100.00
9521;BME280;4798;41.574;23.734;2022-11-20T05:18:55;94936.22;;;16.29;100.00
9521;BME280;4798;41.574;23.734;2022-11-20T05:21:24;94934.47;;;16.33;100.00
9521;BME280;4798;41.574;23.734;2022-11-20T05:23:53;94932.25;;;16.35;100.00
9521;BME280;4798;41.574;23.734;2022-11-20T05:26:23;94922.19;;;16.23;100.00
9521;BME280;4798;41.574;23.734;2022-11-20T05:28:52;94919.69;;;16.18;100.00
9521;BME280;4798;41.574;23.734;2022-11-20T05:31:22;94924.53;;;16.25;100.00
9521;BME280;4798;41.574;23.734;2022-11-20T05:33:55;94927.06;;;16.21;100.00
9521;BME280;4798;41.574;23.734;2022-11-20T05:36:24;94918.09;;;16.26;100.00
9521;BME280;4798;41.574;23.734;2022-11-20T05:38:53;94925.47;;;16.12;100.00
9521;BME280;4798;41.574;23.734;2022-11-20T05:41:28;94935.88;;;16.22;100.00
9521;BME280;4798;41.574;23.734;2022-11-20T05:43:57;94937.28;;;16.28;100.00
9521;BME280;4798;41.574;23.734;2022-11-20T05:46:26;94939.34;;;16.31;100.00
9521;BME280;4798;41.574;23.734;2022-11-20T05:48:56;94943.56;;;16.32;100.00
9521;BME280;4798;41.574;23.734;2022-11-20T05:51:25;94920.00;;;16.25;100.00
9521;BME280;4798;41.574;23.734;2022-11-20T05:53:56;94945.34;;;16.36;100.00
9521;BME280;4798;41.574;23.734;2022-11-20T05:56:25;94948.63;;;16.16;100.00
9521;BME280;4798;41.574;23.734;2022-11-20T05:58:56;94956.00;;;16.11;100.00
9521;BME280;4798;41.574;23.734;2022-11-20T06:01:25;94956.75;;;16.03;100.00
9521;BME280;4798;41.574;23.734;2022-11-20T06:03:54;94957.88;;;16.10;100.00
9521;BME280;4798;41.574;23.734;2022-11-20T06:06:22;94959.91;;;16.05;100.00
9521;BME280;4798;41.574;23.734;2022-11-20T06:08:52;94961.84;;;16.21;100.00
9521;BME280;4798;41.574;23.734;2022-11-20T06:11:20;94973.16;;;16.18;100.00
9521;BME280;4798;41.574;23.734;2022-11-20T06:13:49;94871.38;;;15.41;100.00
9521;BME280;4798;41.574;23.734;2022-11-20T06:16:19;94976.78;;;16.14;100.00
9521;BME280;4798;41.574;23.734;2022-11-20T06:18:48;94957.69;;;16.07;100.00
9521;BME280;4798;41.574;23.734;2022-11-20T06:21:18;94966.22;;;16.17;100.00
9521;BME280;4798;41.574;23.734;2022-11-20T06:23:47;94961.50;;;16.06;100.00
9521;BME280;4798;41.574;23.734;2022-11-20T06:26:20;94956.94;;;16.06;100.00
9521;BME280;4798;41.574;23.734;2022-11-20T06:28:50;94894.44;;;15.76;100.00
9521;BME280;4798;41.574;23.734;2022-11-20T06:31:22;94958.72;;;16.36;100.00
9521;BME280;4798;41.574;23.734;2022-11-20T06:33:51;94953.50;;;16.31;100.00
9521;BME280;4798;41.574;23.734;2022-11-20T06:36:21;94964.38;;;16.26;100.00
9521;BME280;4798;41.574;23.734;2022-11-20T06:38:50;94958.50;;;16.24;100.00
9521;BME280;4798;41.574;23.734;2022-11-20T06:41:20;94951.75;;;16.01;100.00
9521;BME280;4798;41.574;23.734;2022-11-20T06:43:49;94956.50;;;16.21;100.00
9521;BME280;4798;41.574;23.734;2022-11-20T06:46:20;94957.72;;;16.15;100.00
9521;BME280;4798;41.574;23.734;2022-11-20T06:48:49;94945.91;;;16.08;100.00
9521;BME280;4798;41.574;23.734;2022-11-20T06:51:17;94949.25;;;16.13;100.00
9521;BME280;4798;41.574;23.734;2022-11-20T06:53:46;94951.09;;;16.04;100.00
9521;BME280;4798;41.574;23.734;2022-11-20T06:56:15;94955.53;;;16.09;100.00
9521;BME280;4798;41.574;23.734;2022-11-20T06:58:43;94932.25;;;16.01;100.00
9521;BME280;4798;41.574;23.734;2022-11-20T07:01:13;94951.91;;;16.13;100.00
9521;BME280;4798;41.574;23.734;2022-11-20T07:03:44;94955.97;;;16.02;100.00
9521;BME280;4798;41.574;23.734;2022-11-20T07:06:19;94964.63;;;16.08;100.00
9521;BME280;4798;41.574;23.734;2022-11-20T07:08:50;94966.69;;;16.11;100.00
9521;BME280;4798;41.574;23.734;2022-11-20T07:11:18;94971.13;;;16.24;100.00
9521;BME280;4798;41.574;23.734;2022-11-20T07:13:46;94950.03;;;16.22;100.00
9521;BME280;4798;41.574;23.734;2022-11-20T07:16:15;94956.81;;;16.45;100.00
9521;BME280;4798;41.574;23.734;2022-11-20T07:18:45;94969.25;;;16.50;100.00
9521;BME280;4798;41.574;23.734;2022-11-20T07:21:16;94984.97;;;16.43;100.00
9521;BME280;4798;41.574;23.734;2022-11-20T07:23:45;94890.09;;;16.06;100.00
9521;BME280;4798;41.574;23.734;2022-11-20T07:26:13;94973.50;;;16.60;100.00
9521;BME280;4798;41.574;23.734;2022-11-20T07:28:44;94966.56;;;16.50;100.00
9521;BME280;4798;41.574;23.734;2022-11-20T07:31:12;94970.03;;;16.33;100.00
9521;BME280;4798;41.574;23.734;2022-11-20T07:33:46;94967.66;;;16.40;100.00
9521;BME280;4798;41.574;23.734;2022-11-20T07:36:15;94963.75;;;16.46;100.00
9521;BME280;4798;41.574;23.734;2022-11-20T07:38:44;94971.91;;;16.50;100.00
9521;BME280;4798;41.574;23.734;2022-11-20T07:41:12;94984.50;;;16.49;100.00
9521;BME280;4798;41.574;23.734;2022-11-20T07:43:40;94980.72;;;16.50;100.00
9521;BME280;4798;41.574;23.734;2022-11-20T07:46:09;94995.84;;;16.46;100.00
9521;BME280;4798;41.574;23.734;2022-11-20T07:48:37;94981.97;;;16.44;100.00
9521;BME280;4798;41.574;23.734;2022-11-20T07:51:07;94971.44;;;16.48;100.00
9521;BME280;4798;41.574;23.734;2022-11-20T07:53:35;94970.81;;;16.51;100.00
9521;BME280;4798;41.574;23.734;2022-11-20T07:56:04;94967.53;;;16.63;100.00
9521;BME280;4798;41.574;23.734;2022-11-20T07:58:32;94965.16;;;16.70;100.00
9521;BME280;4798;41.574;23.734;2022-11-20T08:01:04;94962.81;;;16.68;100.00
9521;BME280;4798;41.574;23.734;2022-11-20T08:03:34;94965.16;;;16.70;100.00
9521;BME280;4798;41.574;23.734;2022-11-20T08:06:04;94962.66;;;16.73;100.00
9521;BME280;4798;41.574;23.734;2022-11-20T08:08:34;94960.78;;;16.65;100.00
9521;BME280;4798;41.574;23.734;2022-11-20T08:11:08;94971.31;;;16.70;100.00
9521;BME280;4798;41.574;23.734;2022-11-20T08:13:56;94972.75;;;16.76;100.00
9521;BME280;4798;41.574;23.734;2022-11-20T08:16:39;94970.53;;;16.78;100.00
9521;BME280;4798;41.574;23.734;2022-11-20T08:19:08;94968.66;;;16.87;100.00
9521;BME280;4798;41.574;23.734;2022-11-20T08:21:36;94962.00;;;16.93;100.00
9521;BME280;4798;41.574;23.734;2022-11-20T08:24:07;94976.19;;;16.94;100.00
9521;BME280;4798;41.574;23.734;2022-11-20T08:26:36;94964.19;;;17.08;100.00
9521;BME280;4798;41.574;23.734;2022-11-20T08:29:05;94962.63;;;17.07;100.00
9521;BME280;4798;41.574;23.734;2022-11-20T08:31:33;94942.97;;;16.95;100.00
9521;BME280;4798;41.574;23.734;2022-11-20T08:34:02;94958.22;;;17.03;100.00
9521;BME280;4798;41.574;23.734;2022-11-20T08:36:34;94959.13;;;17.15;100.00
9521;BME280;4798;41.574;23.734;2022-11-20T08:39:03;94955.63;;;17.32;100.00
9521;BME280;4798;41.574;23.734;2022-11-20T08:41:33;94952.09;;;17.49;100.00
9521;BME280;4798;41.574;23.734;2022-11-20T08:44:04;94953.84;;;17.45;100.00
9521;BME280;4798;41.574;23.734;2022-11-20T08:46:35;94960.50;;;17.39;100.00
9521;BME280;4798;41.574;23.734;2022-11-20T08:49:03;94958.88;;;17.46;100.00
9521;BME280;4798;41.574;23.734;2022-11-20T08:51:32;94971.44;;;17.71;100.00
9521;BME280;4798;41.574;23.734;2022-11-20T08:54:01;94964.16;;;17.81;100.00
9521;BME280;4798;41.574;23.734;2022-11-20T08:56:30;94958.59;;;17.48;100.00
9521;BME280;4798;41.574;23.734;2022-11-20T08:58:59;94950.34;;;17.61;100.00
9521;BME280;4798;41.574;23.734;2022-11-20T09:01:48;94951.69;;;17.76;100.00
9521;BME280;4798;41.574;23.734;2022-11-20T09:04:16;94944.94;;;17.99;100.00
9521;BME280;4798;41.574;23.734;2022-11-20T09:06:44;94939.53;;;17.78;100.00
9521;BME280;4798;41.574;23.734;2022-11-20T09:09:17;94947.41;;;17.84;100.00
9521;BME280;4798;41.574;23.734;2022-11-20T09:11:46;94938.69;;;17.95;100.00
9521;BME280;4798;41.574;23.734;2022-11-20T09:14:18;94940.84;;;18.02;100.00
9521;BME280;4798;41.574;23.734;2022-11-20T09:16:46;94937.75;;;17.91;100.00
9521;BME280;4798;41.574;23.734;2022-11-20T09:19:14;94937.97;;;17.77;100.00
9521;BME280;4798;41.574;23.734;2022-11-20T09:22:02;94931.34;;;18.04;100.00
9521;BME280;4798;41.574;23.734;2022-11-20T09:24:31;94935.28;;;18.07;100.00
9521;BME280;4798;41.574;23.734;2022-11-20T09:27:02;94925.75;;;18.18;100.00
9521;BME280;4798;41.574;23.734;2022-11-20T09:29:31;94920.47;;;18.30;100.00
9521;BME280;4798;41.574;23.734;2022-11-20T09:32:00;94930.53;;;18.12;100.00
9521;BME280;4798;41.574;23.734;2022-11-20T09:34:28;94925.31;;;17.87;100.00
9521;BME280;4798;41.574;23.734;2022-11-20T09:36:56;94916.50;;;18.07;100.00
9521;BME280;4798;41.574;23.734;2022-11-20T09:39:30;94910.25;;;18.03;100.00
9521;BME280;4798;41.574;23.734;2022-11-20T09:42:21;94893.31;;;18.31;100.00
9521;BME280;4798;41.574;23.734;2022-11-20T09:45:15;94883.81;;;18.55;100.00
9521;BME280;4798;41.574;23.734;2022-11-20T09:50:45;94873.41;;;18.86;95.24
9521;BME280;4798;41.574;23.734;2022-11-20T09:53:25;94878.13;;;18.89;89.20
9521;BME280;4798;41.574;23.734;2022-11-20T09:56:01;94882.75;;;19.00;86.19
9521;BME280;4798;41.574;23.734;2022-11-20T09:58:34;94879.97;;;19.09;88.11
9521;BME280;4798;41.574;23.734;2022-11-20T10:01:10;94877.63;;;18.75;84.82
9521;BME280;4798;41.574;23.734;2022-11-20T10:03:47;94873.47;;;18.65;85.16
9521;BME280;4798;41.574;23.734;2022-11-20T10:06:21;94874.63;;;18.76;87.90
9521;BME280;4798;41.574;23.734;2022-11-20T10:09:03;94863.59;;;18.57;89.37
9521;BME280;4798;41.574;23.734;2022-11-20T10:11:42;94852.66;;;18.62;89.49
9521;BME280;4798;41.574;23.734;2022-11-20T10:14:23;94844.47;;;18.59;90.66
9521;BME280;4798;41.574;23.734;2022-11-20T10:17:02;94838.53;;;18.53;94.85
9521;BME280;4798;41.574;23.734;2022-11-20T10:19:45;94832.28;;;18.49;95.46
9521;BME280;4798;41.574;23.734;2022-11-20T10:22:27;94848.59;;;18.89;98.66
9521;BME280;4798;41.574;23.734;2022-11-20T10:25:03;94839.53;;;18.93;95.25
9521;BME280;4798;41.574;23.734;2022-11-20T10:27:56;94845.28;;;19.04;94.68
9521;BME280;4798;41.574;23.734;2022-11-20T10:30:27;94829.75;;;19.46;92.92
9521;BME280;4798;41.574;23.734;2022-11-20T10:33:04;94776.78;;;19.22;90.59
9521;BME280;4798;41.574;23.734;2022-11-20T10:35:38;94829.75;;;19.46;91.73
9521;BME280;4798;41.574;23.734;2022-11-20T10:38:14;94836.59;;;19.68;89.16
9521;BME280;4798;41.574;23.734;2022-11-20T10:40:47;94835.69;;;19.39;90.85
9521;BME280;4798;41.574;23.734;2022-11-20T10:43:19;94819.66;;;19.19;89.10
9521;BME280;4798;41.574;23.734;2022-11-20T10:45:55;94817.31;;;19.17;91.15
9521;BME280;4798;41.574;23.734;2022-11-20T10:48:27;94808.34;;;19.13;91.49
9521;BME280;4798;41.574;23.734;2022-11-20T10:51:10;94804.63;;;19.06;88.00
9521;BME280;4798;41.574;23.734;2022-11-20T10:53:47;94803.19;;;19.08;85.60
9521;BME280;4798;41.574;23.734;2022-11-20T10:56:22;94811.28;;;19.44;86.60
9521;BME280;4798;41.574;23.734;2022-11-20T10:59:02;94812.28;;;19.52;88.19
9521;BME280;4798;41.574;23.734;2022-11-20T11:01:31;94807.91;;;19.59;89.55
9521;BME280;4798;41.574;23.734;2022-11-20T11:04:01;94805.81;;;19.53;88.85
9521;BME280;4798;41.574;23.734;2022-11-20T11:06:34;94809.47;;;19.36;89.97
9521;BME280;4798;41.574;23.734;2022-11-20T11:09:13;94798.72;;;19.24;90.57
9521;BME280;4798;41.574;23.734;2022-11-20T11:11:44;94802.72;;;18.94;91.59
9521;BME280;4798;41.574;23.734;2022-11-20T11:14:13;94799.69;;;18.95;90.53
9521;BME280;4798;41.574;23.734;2022-11-20T11:16:50;94782.47;;;18.84;92.17
9521;BME280;4798;41.574;23.734;2022-11-20T11:19:20;94796.13;;;19.16;89.32
9521;BME280;4798;41.574;23.734;2022-11-20T11:21:51;94778.78;;;19.01;89.97
9521;BME280;4798;41.574;23.734;2022-11-20T11:24:23;94794.75;;;18.73;85.59
9521;BME280;4798;41.574;23.734;2022-11-20T11:27:12;94781.66;;;18.72;85.78
9521;BME280;4798;41.574;23.734;2022-11-20T11:29:43;94781.56;;;18.80;86.81
9521;BME280;4798;41.574;23.734;2022-11-20T11:32:13;94783.06;;;19.02;85.84
9521;BME280;4798;41.574;23.734;2022-11-20T11:34:43;94785.81;;;18.93;86.11
9521;BME280;4798;41.574;23.734;2022-11-20T11:37:16;94792.78;;;18.94;90.10
9521;BME280;4798;41.574;23.734;2022-11-20T11:39:46;94794.91;;;18.89;91.25
9521;BME280;4798;41.574;23.734;2022-11-20T11:42:35;94796.50;;;18.57;96.25
9521;BME280;4798;41.574;23.734;2022-11-20T11:45:14;94794.94;;;18.56;100.00
9521;BME280;4798;41.574;23.734;2022-11-20T11:47:45;94805.34;;;18.37;100.00
9521;BME280;4798;41.574;23.734;2022-11-20T11:50:21;94795.94;;;18.31;100.00
9521;BME280;4798;41.574;23.734;2022-11-20T11:52:56;94775.47;;;17.73;100.00
9521;BME280;4798;41.574;23.734;2022-11-20T11:55:31;94803.50;;;17.75;100.00
9521;BME280;4798;41.574;23.734;2022-11-20T11:58:16;94804.84;;;17.61;100.00
9521;BME280;4798;41.574;23.734;2022-11-20T12:00:52;94809.25;;;17.86;100.00
9521;BME280;4798;41.574;23.734;2022-11-20T12:03:27;94810.94;;;17.70;100.00
9521;BME280;4798;41.574;23.734;2022-11-20T12:06:01;94812.66;;;17.74;100.00
9521;BME280;4798;41.574;23.734;2022-11-20T12:08:43;94808.84;;;17.46;100.00
9521;BME280;4798;41.574;23.734;2022-11-20T12:11:16;94814.84;;;17.14;100.00
9521;BME280;4798;41.574;23.734;2022-11-20T12:13:52;94812.25;;;17.35;100.00
9521;BME280;4798;41.574;23.734;2022-11-20T12:16:22;94817.88;;;17.42;100.00
9521;BME280;4798;41.574;23.734;2022-11-20T12:18:51;94817.34;;;17.48;100.00
9521;BME280;4798;41.574;23.734;2022-11-20T12:21:28;94805.53;;;17.49;100.00
9521;BME280;4798;41.574;23.734;2022-11-20T12:24:27;94810.94;;;17.03;100.00
9521;BME280;4798;41.574;23.734;2022-11-20T12:27:14;94796.81;;;17.02;100.00
9521;BME280;4798;41.574;23.734;2022-11-20T12:29:53;94819.44;;;17.43;100.00
9521;BME280;4798;41.574;23.734;2022-11-20T12:32:39;94825.22;;;17.53;100.00
9521;BME280;4798;41.574;23.734;2022-11-20T12:35:32;94832.59;;;17.65;100.00
9521;BME280;4798;41.574;23.734;2022-11-20T12:38:26;94829.25;;;17.68;100.00
9521;BME280;4798;41.574;23.734;2022-11-20T12:41:08;94833.59;;;17.43;100.00
9521;BME280;4798;41.574;23.734;2022-11-20T12:43:42;94820.31;;;17.26;100.00
9521;BME280;4798;41.574;23.734;2022-11-20T12:46:45;94839.81;;;17.35;100.00
9521;BME280;4798;41.574;23.734;2022-11-20T12:49:28;94852.59;;;17.30;100.00
9521;BME280;4798;41.574;23.734;2022-11-20T12:52:16;94865.41;;;17.15;100.00
9521;BME280;4798;41.574;23.734;2022-11-20T12:55:14;94891.16;;;16.91;100.00
9521;BME280;4798;41.574;23.734;2022-11-20T12:57:50;94919.50;;;15.98;100.00
9521;BME280;4798;41.574;23.734;2022-11-20T13:00:19;94923.06;;;15.76;100.00
9521;BME280;4798;41.574;23.734;2022-11-20T13:03:04;94892.56;;;15.77;100.00
9521;BME280;4798;41.574;23.734;2022-11-20T13:05:43;94849.81;;;15.77;100.00
9521;BME280;4798;41.574;23.734;2022-11-20T13:08:20;94853.31;;;15.86;100.00
9521;BME280;4798;41.574;23.734;2022-11-20T13:10:54;94870.13;;;16.12;100.00
9521;BME280;4798;41.574;23.734;2022-11-20T13:13:29;94853.28;;;16.55;100.00
9521;BME280;4798;41.574;23.734;2022-11-20T13:16:05;94861.97;;;16.26;100.00
9521;BME280;4798;41.574;23.734;2022-11-20T13:18:38;94872.50;;;16.31;100.00
9521;BME280;4798;41.574;23.734;2022-11-20T13:21:17;94845.25;;;16.55;100.00
9521;BME280;4798;41.574;23.734;2022-11-20T13:23:46;94852.00;;;16.69;100.00
9521;BME280;4798;41.574;23.734;2022-11-20T13:26:18;94862.69;;;16.78;100.00
9521;BME280;4798;41.574;23.734;2022-11-20T13:29:04;94870.28;;;16.59;100.00
9521;BME280;4798;41.574;23.734;2022-11-20T13:31:38;94864.63;;;16.17;100.00